Latest Weather Observations for Katanning RS

IDW60801

Issued at 4:23 pm WST Wednesday 24 April 2019 (issued every 10 minutes, with the page automatically refreshed every 10 minutes)

About weather observations | Map of weather stations | Latest weather observations for WA | Other Formats
Station Details ID: 010916 Name: KATANNING Lat: -33.69 Lon: 117.61 Height: 320.0 m
Data from the previous 72 hours. | See also: Recent months at Katanning RS
Date/Time
WST
Temp
°C
App
Temp
°C
Dew
Point
°C
Rel
Hum
%
Delta-T
°C
Wind Press
QNH
hPa
Press
MSL
hPa
Rain since
9am
mm
Dir  Spd
km/h
Gust
km/h
Spd
kts
Gust
kts
24/04:00pm 22.9 20.7 6.2 34 8.6 SE 7 13 4 7 1027.6 1026.9 0.0
24/03:30pm 22.9 20.7 6.2 34 8.6 E 7 13 4 7 1027.5 1026.8 0.0
24/03:00pm 23.1 20.9 6.0 33 8.8 E 7 13 4 7 1027.6 1026.9 0.0
24/02:30pm 22.7 20.6 6.5 35 8.4 ENE 7 13 4 7 1027.7 1027.0 0.0
24/02:00pm 22.4 20.2 7.8 39 7.7 E 9 15 5 8 1027.7 1027.0 0.0
24/01:30pm 22.1 19.6 8.2 41 7.4 E 11 19 6 10 1027.9 1027.2 0.0
24/01:00pm 21.6 19.6 8.8 44 6.8 E 9 19 5 10 1028.3 1027.7 0.0
24/12:30pm 20.7 18.9 9.3 48 6.2 ENE 9 17 5 9 1028.6 1028.0 0.0
24/12:00pm 20.4 18.4 10.2 52 5.6 E 11 20 6 11 1029.2 1028.5 0.0
24/11:30am 19.4 16.3 9.0 51 5.5 E 15 20 8 11 1029.7 1029.0 0.0
24/11:00am 18.8 15.6 10.1 57 4.7 E 17 22 9 12 1030.1 1029.4 0.0
24/10:30am 17.7 14.6 10.3 62 4.0 E 17 24 9 13 1030.5 1029.8 0.0
24/10:00am 16.9 14.4 11.0 68 3.2 E 15 20 8 11 1030.6 1029.9 0.0
24/09:30am 16.4 13.5 11.1 71 2.9 E 17 26 9 14 1030.6 1029.9 0.0
24/09:00am 15.0 13.2 12.0 82 1.6 E 13 20 7 11 1030.7 1030.0 0.0
24/08:30am 14.2 13.1 11.9 86 1.3 ESE 9 13 5 7 1030.6 1029.9 0.0
24/08:00am 13.5 12.2 11.2 86 1.2 E 9 13 5 7 1030.4 1029.7 0.0
24/07:30am 13.6 12.4 11.5 87 1.1 SE 9 13 5 7 1030.1 1029.4 0.0
24/07:00am 12.9 11.5 11.0 88 1.0 SE 9 13 5 7 1029.8 1029.1 0.0
24/06:30am 12.9 11.9 11.0 88 1.0 SE 7 9 4 5 1029.6 1028.9 0.0
24/06:00am 13.0 11.7 11.1 88 1.0 SE 9 13 5 7 1029.5 1028.8 0.0
24/05:30am 13.0 11.7 11.2 89 1.0 SSE 9 13 5 7 1029.4 1028.7 0.0
24/05:00am 12.8 11.4 11.0 89 1.0 SSE 9 13 5 7 1029.2 1028.5 0.0
24/04:30am 12.4 10.9 10.6 89 0.9 SSE 9 13 5 7 1029.1 1028.4 0.0
24/04:00am 12.1 10.6 10.5 90 0.8 SE 9 11 5 6 1028.9 1028.2 0.0
24/03:30am 12.0 10.5 10.6 91 0.7 SSE 9 13 5 7 1028.9 1028.2 0.0
24/03:00am 11.3 9.6 9.7 90 0.8 SSE 9 13 5 7 1028.7 1028.1 0.0
24/02:30am 11.7 10.4 10.1 90 0.8 SSE 7 11 4 6 1028.7 1028.1 0.0
24/02:00am 11.3 10.1 9.6 89 0.9 SSE 6 9 3 5 1029.0 1028.3 0.0
24/01:30am 11.5 10.2 9.8 89 0.9 SE 7 9 4 5 1028.9 1028.2 0.0
24/01:00am 11.7 10.6 9.8 88 1.0 SE 6 6 3 3 1028.7 1028.1 0.0
24/12:30am 11.8 10.5 9.9 88 1.0 SE 7 9 4 5 1028.5 1027.9 0.0
24/12:00am 12.1 10.4 9.8 86 1.2 SE 9 11 5 6 1028.4 1027.8 0.0
 
Date/Time
WST
Temp
°C
App
Temp
°C
Dew
Point
°C
Rel
Hum
%
Delta-T
°C
Wind Press
QNH
hPa
Press
MSL
hPa
Rain since
9am
mm
Dir  Spd
km/h
Gust
km/h
Spd
kts
Gust
kts
23/11:30pm 12.5 10.9 10.2 86 1.2 SE 9 11 5 6 1028.5 1027.9 0.0
23/11:00pm 13.0 11.5 10.4 84 1.4 SE 9 13 5 7 1028.6 1028.0 0.0
23/10:30pm 13.3 11.7 10.3 82 1.6 SE 9 13 5 7 1028.9 1028.2 0.0
23/10:00pm 13.9 12.0 10.5 80 1.8 SE 11 17 6 9 1029.0 1028.3 0.0
23/09:30pm 14.4 12.0 10.2 76 2.2 SE 13 17 7 9 1028.9 1028.2 0.0
23/09:00pm 15.1 13.1 10.3 73 2.5 SE 11 15 6 8 1028.5 1027.9 0.0
23/08:30pm 15.9 13.2 10.4 70 3.0 SE 15 22 8 12 1028.1 1027.5 0.0
23/08:00pm 16.9 14.4 9.8 63 3.8 ESE 13 17 7 9 1027.7 1027.0 0.0
23/07:30pm 17.8 15.0 7.0 49 5.5 SSE 11 17 6 9 1027.2 1026.5 0.0
23/07:00pm 18.4 16.2 6.3 45 6.1 S 7 9 4 5 1026.7 1026.0 0.0
23/06:30pm 19.1 16.8 5.9 42 6.6 SSE 7 11 4 6 1026.4 1025.7 0.0
23/06:00pm 20.5 17.6 4.9 36 7.7 SSE 9 17 5 9 1026.1 1025.4 0.0
23/05:30pm 22.0 19.5 3.6 30 9.0 S 6 7 3 4 1025.8 1025.1 0.0
23/05:00pm 23.2 21.4 3.2 27 9.7 SSW 2 11 1 6 1025.4 1024.8 0.0
23/04:30pm 23.9 22.1 3.2 26 10.2 SSW 2 9 1 5 1025.2 1024.5 0.0
23/04:00pm 24.1 22.3 3.4 26 10.2 SSW 2 7 1 4 1024.9 1024.2 0.0
23/03:30pm 24.3 21.7 3.0 25 10.5 SW 6 11 3 6 1024.6 1023.9 0.0
23/03:00pm 24.0 21.8 3.3 26 10.2 SSW 4 9 2 5 1024.6 1023.9 0.0
23/02:30pm 23.5 20.7 2.9 26 10.1 S 7 11 4 6 1024.7 1024.0 0.0
23/02:00pm 24.0 21.3 3.9 27 10.0 NW 7 13 4 7 1024.7 1024.0 0.0
23/01:30pm 23.1 20.6 3.6 28 9.6 WSW 6 15 3 8 1025.1 1024.4 0.0
23/01:00pm 23.3 20.8 3.8 28 9.6 NNW 6 13 3 7 1025.2 1024.5 0.0
23/12:30pm 22.5 20.4 4.1 30 9.1 NE 4 9 2 5 1025.7 1025.0 0.0
23/12:00pm 22.0 21.2 8.2 41 7.3 NE 2 6 1 3 1026.1 1025.4 0.0
23/11:30am 20.2 19.2 10.3 53 5.4 E 6 11 3 6 1026.3 1025.6 0.0
23/11:00am 18.8 17.8 11.1 61 4.2 ENE 7 11 4 6 1026.6 1025.9 0.0
23/10:30am 16.7 15.7 11.0 69 3.1 ENE 7 11 4 6 1026.9 1026.2 0.0
23/10:00am 15.7 14.4 11.3 75 2.4 NE 9 13 5 7 1027.2 1026.5 0.0
23/09:30am 14.7 13.3 10.9 78 2.0 E 9 13 5 7 1027.3 1026.6 0.0
23/09:00am 12.9 11.1 10.8 87 1.1 ESE 11 15 6 8 1027.3 1026.6 0.0
23/08:30am 12.1 10.4 9.8 86 1.2 E 9 15 5 8 1027.3 1026.6 0.0
23/08:00am 12.5 11.2 10.0 85 1.3 ESE 7 11 4 6 1027.0 1026.3 0.0
23/07:30am 11.4 10.6 9.5 88 1.0 SE 4 6 2 3 1026.6 1025.9 0.0
23/07:00am 10.4 8.8 8.7 89 0.8 SSE 7 9 4 5 1026.4 1025.7 0.0
23/06:30am 10.2 8.5 8.3 88 0.9 SSE 7 9 4 5 1026.1 1025.4 0.0
23/06:00am 9.9 8.3 8.0 88 0.9 SSE 6 7 3 4 1026.1 1025.4 0.0
23/05:30am 10.1 8.5 8.0 87 1.0 SSE 6 6 3 3 1025.9 1025.2 0.0
23/05:00am 10.7 8.7 8.5 86 1.1 S 9 11 5 6 1026.0 1025.3 0.0
23/04:30am 10.6 8.1 8.4 86 1.1 SSW 11 13 6 7 1025.9 1025.2 0.0
23/04:00am 11.1 9.1 8.8 86 1.2 S 9 11 5 6 1025.7 1025.0 0.0
23/03:30am 11.4 9.0 8.8 84 1.3 S 11 13 6 7 1025.6 1024.9 0.0
23/03:00am 11.4 9.8 8.6 83 1.4 S 7 9 4 5 1025.7 1025.0 0.0
23/02:30am 11.5 9.8 8.4 81 1.6 S 7 9 4 5 1025.4 1024.8 0.0
23/02:00am 11.8 10.1 8.3 79 1.7 S 7 9 4 5 1025.9 1025.2 0.0
23/01:30am 11.9 9.8 8.4 79 1.8 S 9 15 5 8 1025.8 1025.1 0.0
23/01:00am 12.2 10.1 8.3 77 1.9 S 9 13 5 7 1025.8 1025.1 0.0
23/12:30am 12.3 9.8 8.0 75 2.1 S 11 15 6 8 1025.9 1025.2 0.0
23/12:00am 12.2 9.9 7.5 73 2.3 S 9 13 5 7 1025.7 1025.0 0.0
 
Date/Time
WST
Temp
°C
App
Temp
°C
Dew
Point
°C
Rel
Hum
%
Delta-T
°C
Wind Press
QNH
hPa
Press
MSL
hPa
Rain since
9am
mm
Dir  Spd
km/h
Gust
km/h
Spd
kts
Gust
kts
22/11:30pm 12.4 10.0 6.9 69 2.7 S 9 13 5 7 1025.6 1024.9 0.0
22/11:00pm 12.3 9.4 6.4 67 2.8 S 11 13 6 7 1025.7 1025.0 0.0
22/10:30pm 12.9 10.0 6.3 64 3.2 S 11 17 6 9 1025.8 1025.1 0.0
22/10:00pm 13.5 10.9 5.9 60 3.6 S 9 13 5 7 1025.8 1025.1 0.0
22/09:30pm 13.9 10.7 5.0 55 4.2 SSE 11 13 6 7 1025.6 1024.9 0.0
22/09:00pm 15.9 13.3 4.3 46 5.5 S 7 20 4 11 1025.1 1024.4 0.0
22/08:30pm 16.9 14.2 2.9 39 6.5 S 6 7 3 4 1024.9 1024.2 0.0
22/08:00pm 16.3 13.7 3.0 41 6.1 SSW 6 7 3 4 1024.8 1024.1 0.0
22/07:30pm 15.9 12.8 3.4 43 5.8 SW 9 13 5 7 1024.6 1023.9 0.0
22/07:00pm 17.8 16.2 2.5 36 7.1 CALM 0 0 0 0 1024.2 1023.5 0.0
22/06:30pm 18.9 17.3 2.3 33 7.7 CALM 0 0 0 0 1024.0 1023.3 0.0
22/06:00pm 19.5 17.8 1.9 31 8.1 CALM 0 2 0 1 1023.7 1023.0 0.0
22/05:30pm 20.3 17.5 2.2 30 8.5 WSW 6 9 3 5 1023.5 1022.8 0.0
22/05:00pm 21.9 19.2 2.6 28 9.2 WNW 6 9 3 5 1023.4 1022.7 0.0
22/04:30pm 22.3 19.3 1.9 26 9.7 W 7 13 4 7 1023.2 1022.5 0.0
22/04:00pm 22.4 18.9 1.4 25 9.8 WNW 9 17 5 9 1023.0 1022.3 0.0
22/03:30pm 22.7 19.7 1.7 25 10.0 NW 7 13 4 7 1022.9 1022.2 0.0
22/03:00pm 22.6 18.8 1.6 25 9.9 W 11 20 6 11 1022.9 1022.2 0.0
22/02:30pm 22.8 18.6 1.8 25 10.0 NW 13 26 7 14 1023.1 1022.4 0.0
22/02:00pm 22.3 17.8 1.9 26 9.6 WNW 15 24 8 13 1023.1 1022.4 0.0
22/01:30pm 22.1 17.5 1.7 26 9.6 WNW 15 26 8 14 1023.2 1022.5 0.0
22/01:00pm 21.7 17.1 1.4 26 9.5 NNW 15 22 8 12 1023.5 1022.8 0.0
22/12:30pm 21.6 17.1 2.3 28 9.2 NW 15 24 8 13 1023.9 1023.2 0.0
22/12:00pm 20.8 15.5 1.6 28 8.9 NNW 19 28 10 15 1024.3 1023.6 0.0
22/11:30am 20.6 15.1 2.0 29 8.7 NNW 20 28 11 15 1024.8 1024.1 0.0
22/11:00am 19.7 13.8 1.7 30 8.3 NNW 22 32 12 17 1024.9 1024.2 0.0
22/10:30am 19.1 13.3 2.5 33 7.8 NNW 22 28 12 15 1025.3 1024.6 0.0
22/10:00am 17.8 11.2 2.2 35 7.2 NNW 26 35 14 19 1025.8 1025.1 0.0
22/09:30am 17.2 11.0 2.4 37 6.8 NNW 24 32 13 17 1025.8 1025.1 0.0
22/09:00am 16.4 11.7 3.1 41 6.1 NNW 17 28 9 15 1025.8 1025.1 0.0
22/08:30am 13.1 9.4 2.6 49 4.7 N 11 15 6 8 1025.6 1024.9 0.0
22/08:00am 10.9 7.5 1.7 53 3.9 NNW 9 13 5 7 1025.7 1025.0 0.0
22/07:30am 9.6 6.6 1.8 58 3.3 N 7 11 4 6 1025.2 1024.5 0.0
22/07:00am 8.1 5.0 0.3 58 3.1 N 6 7 3 4 1024.9 1024.2 0.0
22/06:30am 8.3 5.2 0.1 56 3.3 N 6 9 3 5 1024.8 1024.1 0.0
22/06:00am 8.6 5.5 0.3 56 3.4 N 6 9 3 5 1024.8 1024.1 0.0
22/05:30am 8.9 5.6 0.4 55 3.5 N 7 9 4 5 1024.9 1024.2 0.0
22/05:00am 8.8 5.8 0.8 57 3.3 N 6 9 3 5 1025.0 1024.3 0.0
22/04:30am 8.9 6.7 1.1 58 3.2 N 2 6 1 3 1024.8 1024.1 0.0
22/04:00am 9.6 6.6 0.5 53 3.7 NNE 6 7 3 4 1024.8 1024.1 0.0
22/03:30am 9.2 6.5 0.1 53 3.7 NNE 4 6 2 3 1024.6 1023.9 0.0
22/03:00am 9.9 7.2 0.3 51 3.9 N 4 6 2 3 1024.7 1024.0 0.0
22/02:30am 9.7 7.5 1.1 55 3.6 NE 2 4 1 2 1024.9 1024.2 0.0
22/02:00am 8.7 6.9 1.4 60 3.0 CALM 0 0 0 0 1025.1 1024.4 0.0
22/01:30am 7.4 5.6 1.0 64 2.6 CALM 0 0 0 0 1025.3 1024.6 0.0
22/01:00am 8.3 6.4 0.3 57 3.2 CALM 0 0 0 0 1025.1 1024.4 0.0
22/12:30am 7.9 5.2 0.2 58 3.1 SE 4 7 2 4 1025.1 1024.4 0.0
22/12:00am 11.6 9.2 -3.3 35 5.7 CALM 0 2 0 1 1025.2 1024.5 0.0
 
Date/Time
WST
Temp
°C
App
Temp
°C
Dew
Point
°C
Rel
Hum
%
Delta-T
°C
Wind Press
QNH
hPa
Press
MSL
hPa
Rain since
9am
mm
Dir  Spd
km/h
Gust
km/h
Spd
kts
Gust
kts
21/11:30pm 11.7 8.7 -2.1 38 5.5 NNE 4 4 2 2 1025.2 1024.5 0.0
21/11:00pm 12.1 9.8 -2.1 37 5.6 CALM 0 0 0 0 1025.6 1024.9 0.0
21/10:30pm 12.7 10.5 -1.2 38 5.7 CALM 0 0 0 0 1025.7 1025.0 0.0
21/10:00pm 11.9 9.7 -1.6 39 5.4 CALM 0 2 0 1 1025.9 1025.2 0.0
21/09:30pm 11.9 9.3 -1.9 38 5.5 NE 2 2 1 1 1026.1 1025.4 0.0
21/09:00pm 12.5 10.1 -3.3 33 6.1 CALM 0 0 0 0 1026.3 1025.6 0.0
21/08:30pm 14.1 11.7 -2.8 31 6.8 CALM 0 0 0 0 1026.2 1025.5 0.0
21/08:00pm 14.5 12.1 -2.8 30 6.9 CALM 0 0 0 0 1026.3 1025.6 0.0
21/07:30pm 14.2 11.9 -2.7 31 6.8 CALM 0 0 0 0 1026.4 1025.7 0.0
21/07:00pm 14.6 12.3 -2.3 31 6.8 CALM 0 0 0 0 1026.4 1025.7 0.0
21/06:30pm 14.9 11.9 -2.1 31 7.0 NNE 4 4 2 2 1026.3 1025.6 0.0
21/06:00pm 16.1 13.1 -1.9 29 7.5 NNE 4 6 2 3 1026.1 1025.4 0.0
21/05:30pm 16.8 13.5 -1.3 29 7.7 NE 6 7 3 4 1026.0 1025.3 0.0
21/05:00pm 18.3 15.0 -1.5 26 8.5 NNE 6 9 3 5 1025.9 1025.2 0.0
21/04:30pm 18.8 15.5 -1.1 26 8.7 NNE 6 11 3 6 1025.9 1025.2 0.0

Other formats

Comma delimited format used in spreadsheet applications
http://www.bom.gov.au/fwo/IDW60801/IDW60801.94641.axf

JavaScript Object Notation format (JSON) in row-major order
http://www.bom.gov.au/fwo/IDW60801/IDW60801.94641.json

Data quality

Most of these data are generated automatically and are frequently updated. Quality checks on data are not normally performed. It is possible for incorrect values to appear. Refer to information at About Latest Weather Observations and please check the disclaimer before using these data.